createdAt,value
2019-05-21T00:00:42.901Z,92.70
2019-05-21T00:01:43.198Z,102.10
2019-05-21T00:02:42.893Z,86.60
2019-05-21T00:03:42.861Z,80.80
2019-05-21T00:04:42.853Z,73.30
2019-05-21T00:05:42.904Z,80.40
2019-05-21T00:06:42.827Z,78.80
2019-05-21T00:07:42.869Z,71.20
2019-05-21T00:08:42.841Z,60.90
2019-05-21T00:09:42.819Z,84.30
2019-05-21T00:10:42.817Z,79.60
2019-05-21T00:11:42.807Z,79.30
2019-05-21T00:12:42.775Z,81.40
2019-05-21T00:13:42.754Z,76.20
2019-05-21T00:14:42.753Z,76.80
2019-05-21T00:15:42.775Z,75.10
2019-05-21T00:16:42.762Z,75.00
2019-05-21T00:17:42.718Z,74.80
2019-05-21T00:18:42.699Z,69.70
2019-05-21T00:19:42.696Z,77.90
2019-05-21T00:20:42.687Z,74.00
2019-05-21T00:21:42.696Z,77.20
2019-05-21T00:22:42.663Z,81.10
2019-05-21T00:23:42.642Z,88.90
2019-05-21T00:24:42.647Z,91.00
2019-05-21T00:25:42.639Z,82.30
2019-05-21T00:26:42.618Z,114.90
2019-05-21T00:27:42.604Z,96.70
2019-05-21T00:28:42.591Z,99.60
2019-05-21T00:29:42.589Z,84.30
2019-05-21T00:30:42.578Z,73.70
2019-05-21T00:31:42.557Z,76.00
2019-05-21T00:32:42.570Z,77.10
2019-05-21T00:33:42.541Z,69.80
2019-05-21T00:34:44.273Z,71.40
2019-05-21T00:35:42.525Z,72.30
2019-05-21T00:36:42.506Z,65.50
2019-05-21T00:37:42.504Z,80.20
2019-05-21T00:38:42.470Z,70.10
2019-05-21T00:39:42.472Z,82.90
2019-05-21T00:40:42.466Z,88.20
2019-05-21T00:41:42.452Z,79.50
2019-05-21T00:42:42.480Z,74.30
2019-05-21T00:43:42.435Z,88.60
2019-05-21T00:44:42.422Z,82.00
2019-05-21T00:45:42.399Z,77.20
2019-05-21T00:46:42.432Z,76.20
2019-05-21T00:47:42.386Z,67.90
2019-05-21T00:48:42.400Z,69.50
2019-05-21T00:49:42.372Z,67.60
2019-05-21T00:50:42.377Z,72.70
2019-05-21T00:51:42.341Z,74.80
2019-05-21T00:52:42.336Z,77.50
2019-05-21T00:53:42.351Z,77.20
2019-05-21T00:54:42.310Z,79.70
2019-05-21T00:55:42.296Z,74.30
2019-05-21T00:56:42.281Z,85.40
2019-05-21T00:57:42.299Z,66.20
2019-05-21T00:58:42.280Z,79.10
2019-05-21T00:59:42.271Z,76.30
2019-05-21T01:00:42.237Z,73.60
2019-05-21T01:01:42.268Z,80.60
2019-05-21T01:02:42.222Z,80.00
2019-05-21T01:03:43.420Z,74.00
2019-05-21T01:04:42.198Z,72.00
2019-05-21T01:05:42.186Z,64.20
2019-05-21T01:06:42.182Z,59.70
2019-05-21T01:07:42.175Z,69.50
2019-05-21T01:08:42.163Z,78.90
2019-05-21T01:09:42.141Z,59.60
2019-05-21T01:10:42.144Z,77.20
2019-05-21T01:11:42.128Z,64.30
2019-05-21T01:12:42.127Z,61.80
2019-05-21T01:13:42.097Z,61.90
2019-05-21T01:14:42.090Z,66.60
2019-05-21T01:15:42.084Z,66.10
2019-05-21T01:16:42.077Z,71.40
2019-05-21T01:17:42.084Z,71.70
2019-05-21T01:18:42.038Z,76.60
2019-05-21T01:19:42.031Z,77.70
2019-05-21T01:20:42.027Z,72.50
2019-05-21T01:21:42.017Z,76.00
2019-05-21T01:22:42.030Z,72.50
2019-05-21T01:23:41.992Z,80.40
2019-05-21T01:24:41.986Z,75.80
2019-05-21T01:25:41.976Z,84.10
2019-05-21T01:26:41.963Z,83.60
2019-05-21T01:27:41.953Z,73.80
2019-05-21T01:28:41.948Z,78.80
2019-05-21T01:29:41.917Z,82.00
2019-05-21T01:30:41.914Z,83.70
2019-05-21T01:31:41.918Z,72.20
2019-05-21T01:32:41.889Z,82.70
2019-05-21T01:33:41.907Z,92.00
2019-05-21T01:34:41.880Z,76.90
2019-05-21T01:35:41.865Z,80.80
2019-05-21T01:36:41.857Z,78.10
2019-05-21T01:37:41.830Z,75.40
2019-05-21T01:38:41.887Z,86.40
2019-05-21T01:39:41.841Z,76.90
2019-05-21T01:40:41.815Z,70.30
2019-05-21T01:41:41.806Z,72.10
2019-05-21T01:42:41.776Z,72.40
2019-05-21T01:43:41.811Z,74.90
2019-05-21T01:44:41.780Z,87.60
2019-05-21T01:45:41.756Z,82.10
2019-05-21T01:46:41.771Z,89.20
2019-05-21T01:47:41.726Z,77.50
2019-05-21T01:48:41.754Z,92.00
2019-05-21T01:49:41.705Z,74.80
2019-05-21T01:50:41.703Z,80.20
2019-05-21T01:51:41.688Z,74.60
2019-05-21T01:52:41.688Z,88.00
2019-05-21T01:53:41.658Z,88.40
2019-05-21T01:54:41.673Z,86.90
2019-05-21T01:55:41.670Z,85.60
2019-05-21T01:56:41.625Z,104.20
2019-05-21T01:57:41.640Z,83.80
2019-05-21T01:58:41.615Z,76.10
2019-05-21T01:59:41.621Z,90.70
2019-05-21T02:00:41.583Z,95.60
2019-05-21T02:01:41.571Z,66.80
2019-05-21T02:02:41.627Z,88.50
2019-05-21T02:03:41.568Z,95.90
2019-05-21T02:04:41.595Z,89.50
2019-05-21T02:05:41.538Z,97.50
2019-05-21T02:06:41.517Z,97.30
2019-05-21T02:07:41.517Z,94.80
2019-05-21T02:08:41.494Z,118.30
2019-05-21T02:09:41.490Z,110.10
2019-05-21T02:10:41.500Z,102.70
2019-05-21T02:11:41.537Z,94.50
2019-05-21T02:12:41.465Z,83.50
2019-05-21T02:13:41.461Z,99.00
2019-05-21T02:14:41.450Z,120.40
2019-05-21T02:15:41.446Z,93.30
2019-05-21T02:16:41.419Z,89.40
2019-05-21T02:17:41.399Z,94.30
2019-05-21T02:18:41.430Z,80.10
2019-05-21T02:19:41.393Z,99.30
2019-05-21T02:20:41.402Z,90.10
2019-05-21T02:21:41.363Z,84.90
2019-05-21T02:22:41.361Z,77.50
2019-05-21T02:23:41.340Z,100.40
2019-05-21T02:24:41.328Z,96.10
2019-05-21T02:25:41.352Z,82.90
2019-05-21T02:26:41.311Z,84.50
2019-05-21T02:27:41.418Z,76.90
2019-05-21T02:28:41.293Z,78.00
2019-05-21T02:29:41.292Z,85.30
2019-05-21T02:30:41.283Z,126.30
2019-05-21T02:31:41.264Z,98.60
2019-05-21T02:32:41.254Z,89.20
2019-05-21T02:33:41.233Z,95.20
2019-05-21T02:34:41.223Z,98.70
2019-05-21T02:35:53.519Z,86.60
2019-05-21T02:36:42.220Z,93.30
2019-05-21T02:37:41.201Z,78.20
2019-05-21T02:38:41.200Z,74.30
2019-05-21T02:39:41.167Z,73.40
2019-05-21T02:40:41.155Z,83.80
2019-05-21T02:41:41.220Z,91.20
2019-05-21T02:42:42.074Z,111.90
2019-05-21T02:43:41.128Z,100.70
2019-05-21T02:44:41.113Z,127.00
2019-05-21T02:45:41.112Z,115.30
2019-05-21T02:46:41.093Z,94.60
2019-05-21T02:47:41.131Z,107.40
2019-05-21T02:48:41.081Z,88.40
2019-05-21T02:49:41.074Z,96.30
2019-05-21T02:50:41.057Z,95.70
2019-05-21T02:51:41.047Z,100.70
2019-05-21T02:52:41.032Z,105.80
2019-05-21T02:53:41.056Z,121.60
2019-05-21T02:54:41.863Z,95.30
2019-05-21T02:55:41.002Z,86.20
2019-05-21T02:56:40.995Z,77.00
2019-05-21T02:57:40.987Z,101.10
2019-05-21T02:58:41.001Z,96.40
2019-05-21T02:59:40.980Z,122.90
2019-05-21T03:00:40.957Z,112.70
2019-05-21T03:01:40.967Z,95.20
2019-05-21T03:02:40.948Z,99.90
2019-05-21T03:03:40.920Z,108.20
2019-05-21T03:04:40.944Z,105.10
2019-05-21T03:05:40.888Z,111.10
2019-05-21T03:06:40.877Z,129.30
2019-05-21T03:07:40.874Z,117.00
2019-05-21T03:08:40.874Z,137.20
2019-05-21T03:09:40.902Z,105.80
2019-05-21T03:10:40.836Z,128.20
2019-05-21T03:11:40.831Z,126.70
2019-05-21T03:12:40.853Z,131.10
2019-05-21T03:13:40.809Z,131.60
2019-05-21T03:14:40.801Z,144.80
2019-05-21T03:15:40.814Z,134.80
2019-05-21T03:16:40.783Z,94.40
2019-05-21T03:17:40.775Z,150.70
2019-05-21T03:18:40.774Z,107.20
2019-05-21T03:19:40.744Z,123.40
2019-05-21T03:20:40.735Z,121.30
2019-05-21T03:21:40.766Z,136.00
2019-05-21T03:22:40.714Z,130.20
2019-05-21T03:23:40.712Z,121.10
2019-05-21T03:24:40.698Z,125.00
2019-05-21T03:25:40.682Z,140.10
2019-05-21T03:26:40.681Z,112.80
2019-05-21T03:27:40.702Z,114.70
2019-05-21T03:28:40.665Z,134.50
2019-05-21T03:29:40.630Z,155.70
2019-05-21T03:30:40.639Z,146.00
2019-05-21T03:31:40.638Z,131.00
2019-05-21T03:32:40.634Z,114.20
2019-05-21T03:33:40.625Z,132.30
2019-05-21T03:34:40.609Z,126.80
2019-05-21T03:35:40.585Z,129.60
2019-05-21T03:36:40.584Z,111.20
2019-05-21T03:37:40.555Z,136.70
2019-05-21T03:38:40.553Z,112.60
2019-05-21T03:39:40.565Z,120.90
2019-05-21T03:40:40.531Z,125.00
2019-05-21T03:41:40.503Z,136.80
2019-05-21T03:42:40.499Z,139.40
2019-05-21T03:43:40.493Z,138.20
2019-05-21T03:44:58.288Z,117.10
2019-05-21T03:45:41.505Z,127.40
2019-05-21T03:46:40.461Z,119.00
2019-05-21T03:47:40.475Z,119.80
2019-05-21T03:48:40.446Z,111.30
2019-05-21T03:49:40.465Z,111.70
2019-05-21T03:50:40.447Z,128.00
2019-05-21T03:51:40.424Z,128.80
2019-05-21T03:52:40.384Z,118.30
2019-05-21T03:53:40.374Z,107.80
2019-05-21T03:54:40.372Z,123.60
2019-05-21T03:55:40.391Z,121.90
2019-05-21T03:56:40.357Z,108.60
2019-05-21T03:57:40.349Z,101.80
2019-05-21T03:58:40.334Z,120.80
2019-05-21T03:59:40.325Z,111.70
2019-05-21T04:00:40.331Z,93.60
2019-05-21T04:01:40.305Z,110.70
2019-05-21T04:02:40.297Z,95.60
2019-05-21T04:03:40.289Z,125.80
2019-05-21T04:04:40.258Z,104.40
2019-05-21T04:05:40.247Z,95.30
2019-05-21T04:06:51.335Z,91.30
2019-05-21T04:07:41.227Z,97.80
2019-05-21T04:08:40.219Z,102.90
2019-05-21T04:09:40.223Z,101.60
2019-05-21T04:10:40.200Z,94.50
2019-05-21T04:11:40.246Z,90.40
2019-05-21T04:12:40.189Z,93.70
2019-05-21T04:13:40.174Z,90.40
2019-05-21T04:14:40.211Z,100.80
2019-05-21T04:15:40.176Z,94.60
2019-05-21T04:16:40.140Z,100.20
2019-05-21T04:17:40.178Z,101.20
2019-05-21T04:18:40.114Z,104.40
2019-05-21T04:19:40.113Z,106.60
2019-05-21T04:20:40.101Z,95.20
2019-05-21T04:21:40.122Z,88.50
2019-05-21T04:22:40.075Z,88.10
2019-05-21T04:23:40.069Z,103.80
2019-05-21T04:24:40.057Z,93.80
2019-05-21T04:25:40.050Z,85.50
2019-05-21T04:26:40.057Z,91.00
2019-05-21T04:27:40.075Z,96.10
2019-05-21T04:28:40.021Z,79.80
2019-05-21T04:29:40.004Z,97.90
2019-05-21T04:30:39.991Z,79.90
2019-05-21T04:31:39.993Z,85.50
2019-05-21T04:32:39.970Z,80.50
2019-05-21T04:33:39.977Z,85.90
2019-05-21T04:34:39.949Z,89.40
2019-05-21T04:35:39.935Z,99.80
2019-05-21T04:36:39.936Z,86.60
2019-05-21T04:37:39.932Z,79.30
2019-05-21T04:38:39.949Z,75.70
2019-05-21T04:39:39.882Z,73.70
2019-05-21T04:40:39.891Z,78.10
2019-05-21T04:41:39.881Z,71.70
2019-05-21T04:42:39.868Z,70.30
2019-05-21T04:43:39.877Z,79.80
2019-05-21T04:44:39.855Z,83.10
2019-05-21T04:45:39.832Z,77.30
2019-05-21T04:46:39.810Z,70.90
2019-05-21T04:47:39.801Z,73.10
2019-05-21T04:48:39.782Z,72.10
2019-05-21T04:49:39.821Z,77.40
2019-05-21T04:50:39.787Z,77.50
2019-05-21T04:51:39.762Z,76.50
2019-05-21T04:52:39.753Z,79.60
2019-05-21T04:53:39.753Z,74.50
2019-05-21T04:54:39.751Z,61.00
2019-05-21T04:55:39.725Z,59.00
2019-05-21T04:56:39.708Z,60.50
2019-05-21T04:57:39.869Z,64.30
2019-05-21T04:58:39.679Z,63.50
2019-05-21T04:59:39.668Z,62.90
2019-05-21T05:00:39.695Z,64.80
2019-05-21T05:01:39.669Z,63.10
2019-05-21T05:02:39.635Z,56.30
2019-05-21T05:03:39.624Z,53.50
2019-05-21T05:04:39.665Z,61.60
2019-05-21T05:05:39.603Z,59.50
2019-05-21T05:06:39.602Z,57.50
2019-05-21T05:07:39.650Z,63.30
2019-05-21T05:08:39.580Z,53.50
2019-05-21T05:09:39.566Z,50.10
2019-05-21T05:10:39.600Z,64.40
2019-05-21T05:11:39.539Z,67.00
2019-05-21T05:12:39.536Z,47.80
2019-05-21T05:13:39.523Z,45.30
2019-05-21T05:14:39.514Z,57.30
2019-05-21T05:15:39.560Z,44.60
2019-05-21T05:16:39.510Z,47.00
2019-05-21T05:17:39.529Z,46.00
2019-05-21T05:18:39.476Z,40.00
2019-05-21T05:19:39.477Z,65.40
2019-05-21T05:20:39.450Z,54.60
2019-05-21T05:21:39.469Z,48.40
2019-05-21T05:22:39.444Z,42.60
2019-05-21T05:23:39.423Z,35.90
2019-05-21T05:24:39.392Z,45.50
2019-05-21T05:25:39.392Z,43.40
2019-05-21T05:26:39.377Z,39.30
2019-05-21T05:27:40.207Z,35.70
2019-05-21T05:28:39.370Z,45.60
2019-05-21T05:29:39.359Z,40.80
2019-05-21T05:30:39.327Z,42.80
2019-05-21T05:31:39.329Z,42.80
2019-05-21T05:32:39.327Z,43.40
2019-05-21T05:33:39.330Z,42.40
2019-05-21T05:34:39.297Z,46.90
2019-05-21T05:35:39.345Z,46.20
2019-05-21T05:36:39.430Z,44.50
2019-05-21T05:37:44.101Z,46.80
2019-05-21T05:38:40.266Z,48.20
2019-05-21T05:39:39.249Z,48.60
2019-05-21T05:40:39.228Z,50.70
2019-05-21T05:41:39.224Z,46.60
2019-05-21T05:42:39.278Z,45.80
2019-05-21T05:43:40.117Z,45.50
2019-05-21T05:44:39.208Z,40.10
2019-05-21T05:45:39.193Z,34.40
2019-05-21T05:46:39.224Z,43.60
2019-05-21T05:47:39.144Z,34.60
2019-05-21T05:48:39.161Z,38.30
2019-05-21T05:49:39.141Z,32.60
2019-05-21T05:50:39.130Z,43.20
2019-05-21T05:51:39.106Z,39.70
2019-05-21T05:52:39.106Z,42.50
2019-05-21T05:53:39.082Z,46.80
2019-05-21T05:54:39.124Z,44.90
2019-05-21T05:55:39.075Z,43.80
2019-05-21T05:56:39.064Z,47.50
2019-05-21T05:57:39.059Z,48.30
2019-05-21T05:58:39.047Z,41.80
2019-05-21T05:59:39.049Z,46.80
2019-05-21T06:00:39.016Z,42.70
2019-05-21T06:01:39.014Z,46.90
2019-05-21T06:02:38.998Z,50.30
2019-05-21T06:03:38.994Z,42.60
2019-05-21T06:04:39.095Z,44.30
2019-05-21T06:05:38.982Z,41.60
2019-05-21T06:06:38.965Z,43.90
2019-05-21T06:07:38.951Z,38.30
2019-05-21T06:08:38.933Z,46.80
2019-05-21T06:09:38.939Z,34.50
2019-05-21T06:10:40.125Z,42.90
2019-05-21T06:11:48.206Z,36.70
2019-05-21T06:12:38.898Z,36.60
2019-05-21T06:13:38.884Z,39.60
2019-05-21T06:14:38.890Z,35.90
2019-05-21T06:15:48.735Z,36.10
2019-05-21T06:16:38.828Z,41.30
2019-05-21T06:17:38.839Z,38.60
2019-05-21T06:18:38.820Z,47.50
2019-05-21T06:19:49.269Z,33.80
2019-05-21T06:20:48.287Z,45.30
2019-05-21T06:21:38.839Z,38.90
2019-05-21T06:22:38.767Z,35.00
2019-05-21T06:23:38.772Z,36.80
2019-05-21T06:25:56.192Z,29.50
2019-05-21T06:27:05.498Z,29.80
2019-05-21T06:28:04.545Z,29.90
2019-05-21T06:28:56.119Z,31.00
2019-05-21T06:29:56.120Z,29.70
2019-05-21T06:30:56.128Z,30.30
2019-05-21T06:31:56.134Z,31.80
2019-05-21T06:32:56.127Z,31.60
2019-05-21T06:33:56.083Z,30.80
2019-05-21T06:34:56.063Z,31.00
2019-05-21T06:35:56.082Z,31.00
2019-05-21T06:36:56.072Z,30.50
2019-05-21T06:37:56.068Z,28.80
2019-05-21T06:38:56.026Z,30.90
2019-05-21T06:39:56.000Z,32.90
2019-05-21T06:40:56.004Z,30.80
2019-05-21T06:41:56.016Z,29.30
2019-05-21T06:42:55.983Z,29.80
2019-05-21T06:43:55.995Z,32.00
2019-05-21T06:44:55.953Z,28.40
2019-05-21T06:45:55.942Z,28.90
2019-05-21T06:46:55.942Z,28.60
2019-05-21T06:47:55.966Z,32.50
2019-05-21T06:49:05.150Z,36.40
2019-05-21T06:49:55.910Z,35.50
2019-05-21T06:50:55.905Z,33.10
2019-05-21T06:51:56.231Z,29.20
2019-05-21T06:52:56.038Z,31.80
2019-05-21T06:53:55.877Z,29.90
2019-05-21T06:54:55.872Z,29.30
2019-05-21T06:55:55.852Z,33.80
2019-05-21T06:56:56.075Z,30.30
2019-05-21T06:57:55.879Z,30.70
2019-05-21T06:58:55.855Z,30.70
2019-05-21T06:59:55.865Z,26.90
2019-05-21T07:00:55.919Z,28.20
2019-05-21T07:01:55.794Z,26.70
2019-05-21T07:02:55.794Z,27.20
2019-05-21T07:03:55.792Z,28.20
2019-05-21T07:04:55.812Z,28.80
2019-05-21T07:05:59.249Z,24.50
2019-05-21T07:06:55.817Z,29.40
2019-05-21T07:07:55.740Z,27.80
2019-05-21T07:08:55.734Z,26.20
2019-05-21T07:09:55.768Z,27.00
2019-05-21T07:10:55.702Z,26.70
2019-05-21T07:11:55.678Z,25.00
2019-05-21T07:12:55.675Z,26.10
2019-05-21T07:13:55.679Z,23.30
2019-05-21T07:14:55.665Z,22.30
2019-05-21T07:15:55.670Z,23.20
2019-05-21T07:16:55.653Z,21.70
2019-05-21T07:17:55.623Z,19.70
2019-05-21T07:18:55.601Z,21.70
2019-05-21T07:19:55.623Z,20.40
2019-05-21T07:20:56.522Z,18.20
2019-05-21T07:22:11.158Z,23.10
2019-05-21T07:22:56.682Z,20.70
2019-05-21T07:23:55.562Z,20.70
2019-05-21T07:24:55.544Z,18.60
2019-05-21T07:25:55.531Z,24.20
2019-05-21T07:26:55.537Z,18.90
2019-05-21T07:27:55.552Z,21.40
2019-05-21T07:28:56.462Z,21.30
2019-05-21T07:29:55.482Z,19.10
2019-05-21T07:30:55.508Z,16.80
2019-05-21T07:32:06.929Z,14.40
2019-05-21T07:33:05.778Z,15.90
2019-05-21T07:34:05.731Z,13.90
2019-05-21T07:34:55.468Z,14.80
2019-05-21T07:35:55.446Z,14.60
2019-05-21T07:36:55.428Z,14.40
2019-05-21T07:37:55.458Z,14.00
2019-05-21T07:38:55.430Z,13.90
2019-05-21T07:40:04.751Z,14.20
2019-05-21T07:40:55.378Z,15.90
2019-05-21T07:41:55.348Z,12.30
2019-05-21T07:42:55.372Z,14.80
2019-05-21T07:43:55.369Z,14.80
2019-05-21T07:44:55.335Z,14.20
2019-05-21T07:45:55.307Z,13.40
2019-05-21T07:46:55.313Z,12.00
2019-05-21T07:47:55.293Z,12.60
2019-05-21T07:48:55.336Z,11.80
2019-05-21T07:49:55.312Z,12.30
2019-05-21T07:50:55.281Z,14.40
2019-05-21T07:51:55.270Z,16.00
2019-05-21T07:52:55.295Z,13.30
2019-05-21T07:53:55.287Z,15.60
2019-05-21T07:54:55.252Z,14.00
2019-05-21T07:55:55.221Z,11.30
2019-05-21T07:56:55.261Z,12.40
2019-05-21T07:57:55.210Z,12.20
2019-05-21T07:58:55.218Z,13.20
2019-05-21T07:59:55.213Z,11.30
2019-05-21T08:00:55.166Z,12.80
2019-05-21T08:01:55.151Z,12.50
2019-05-21T08:02:55.138Z,12.80
2019-05-21T08:03:55.210Z,13.90
2019-05-21T08:04:55.205Z,12.50
2019-05-21T08:05:55.147Z,12.50
2019-05-21T08:06:55.102Z,12.10
2019-05-21T08:07:55.096Z,11.80
2019-05-21T08:09:11.808Z,11.40
2019-05-21T08:09:56.112Z,10.70
2019-05-21T08:10:55.101Z,11.90
2019-05-21T08:11:55.041Z,12.40
2019-05-21T08:12:55.013Z,13.00
2019-05-21T08:13:55.027Z,11.40
2019-05-21T08:14:55.021Z,11.80
2019-05-21T08:15:55.029Z,11.50
2019-05-21T08:16:55.014Z,11.80
2019-05-21T08:17:54.974Z,11.40
2019-05-21T08:18:54.968Z,12.20
2019-05-21T08:19:54.964Z,11.00
2019-05-21T08:20:54.961Z,10.50
2019-05-21T08:21:54.928Z,10.40
2019-05-21T08:22:54.945Z,11.60
2019-05-21T08:23:54.912Z,11.00
2019-05-21T08:24:54.920Z,11.50
2019-05-21T08:25:54.890Z,10.80
2019-05-21T08:26:54.895Z,11.20
2019-05-21T08:27:54.959Z,11.60
2019-05-21T08:28:54.851Z,10.70
2019-05-21T08:29:54.847Z,10.40
2019-05-21T08:30:54.838Z,10.80
2019-05-21T08:31:54.856Z,11.60
2019-05-21T08:32:54.827Z,11.70
2019-05-21T08:33:54.839Z,10.60
2019-05-21T08:34:54.799Z,10.20
2019-05-21T08:35:54.792Z,10.40
2019-05-21T08:36:54.775Z,10.90
2019-05-21T08:37:54.779Z,10.50
2019-05-21T08:38:54.768Z,10.40
2019-05-21T08:39:54.822Z,10.40
2019-05-21T08:40:54.727Z,10.80
2019-05-21T08:41:54.759Z,11.60
2019-05-21T08:42:54.695Z,11.40
2019-05-21T08:43:54.691Z,11.10
2019-05-21T08:44:54.723Z,11.20
2019-05-21T08:45:54.665Z,11.10
2019-05-21T08:46:54.659Z,10.80
2019-05-21T08:47:54.667Z,11.40
2019-05-21T08:48:54.721Z,10.40
2019-05-21T08:49:54.677Z,10.80
2019-05-21T08:50:54.671Z,11.10
2019-05-21T08:51:54.620Z,11.20
2019-05-21T08:52:54.612Z,11.00
2019-05-21T08:53:54.588Z,11.00
2019-05-21T08:54:56.432Z,11.90
2019-05-21T08:55:54.591Z,11.70
2019-05-21T08:56:54.604Z,10.20
2019-05-21T08:58:06.406Z,11.00
2019-05-21T08:58:55.535Z,11.10
2019-05-21T08:59:54.567Z,10.80
2019-05-21T09:00:54.539Z,11.80
2019-05-21T09:01:58.750Z,12.10
2019-05-21T09:02:54.513Z,11.70
2019-05-21T09:03:54.500Z,10.20
2019-05-21T09:04:54.477Z,10.10
2019-05-21T09:05:54.495Z,11.40
2019-05-21T09:06:54.470Z,10.80
2019-05-21T09:07:54.456Z,10.20
2019-05-21T09:08:54.453Z,11.70
2019-05-21T09:09:54.450Z,12.20
2019-05-21T09:11:03.306Z,11.80
2019-05-21T09:12:03.822Z,12.30
2019-05-21T09:13:03.828Z,11.20
2019-05-21T09:14:03.890Z,9.00
2019-05-21T09:15:03.893Z,9.10
2019-05-21T09:16:01.911Z,9.50
2019-05-21T09:16:54.343Z,9.30
2019-05-21T09:17:54.349Z,8.00
2019-05-21T09:18:54.314Z,8.10
2019-05-21T09:19:54.309Z,8.40
2019-05-21T09:20:54.331Z,7.70
2019-05-21T09:21:54.335Z,8.10
2019-05-21T09:22:54.281Z,9.10
2019-05-21T09:23:54.275Z,9.60
2019-05-21T09:24:54.272Z,10.70
2019-05-21T09:25:54.260Z,10.20
2019-05-21T09:26:54.281Z,9.80
2019-05-21T09:27:54.279Z,9.90
2019-05-21T09:28:54.241Z,13.60
2019-05-21T09:29:54.255Z,17.00
2019-05-21T09:30:54.199Z,17.60
2019-05-21T09:31:54.204Z,18.40
2019-05-21T09:32:54.214Z,15.60
2019-05-21T09:33:54.173Z,12.10
2019-05-21T09:34:54.165Z,13.50
2019-05-21T09:35:54.143Z,9.60
2019-05-21T09:36:54.156Z,8.80
2019-05-21T09:37:54.139Z,7.80
2019-05-21T09:38:54.125Z,7.90
2019-05-21T09:39:54.139Z,7.90
2019-05-21T09:40:54.106Z,7.30
2019-05-21T09:41:54.137Z,7.70
2019-05-21T09:42:54.113Z,8.50
2019-05-21T09:43:54.202Z,8.50
2019-05-21T09:44:54.054Z,9.20
2019-05-21T09:45:54.086Z,9.10
2019-05-21T09:46:54.050Z,8.50
2019-05-21T09:47:54.037Z,7.50
2019-05-21T09:48:56.108Z,6.70
2019-05-21T09:49:53.996Z,6.40
2019-05-21T09:50:54.036Z,8.10
2019-05-21T09:51:54.102Z,6.70
2019-05-21T09:52:54.017Z,6.80
2019-05-21T09:53:53.995Z,7.10
2019-05-21T09:54:53.955Z,6.90
2019-05-21T09:55:53.962Z,7.10
2019-05-21T09:56:53.940Z,7.30
2019-05-21T09:57:53.925Z,7.50
2019-05-21T09:58:53.936Z,8.10
2019-05-21T09:59:53.904Z,11.70
2019-05-21T10:00:53.892Z,12.80
2019-05-21T10:01:53.902Z,10.20
2019-05-21T10:02:53.902Z,10.40
2019-05-21T10:03:53.888Z,8.70
2019-05-21T10:04:53.872Z,6.00
2019-05-21T10:05:53.864Z,7.20
2019-05-21T10:06:53.838Z,8.50
2019-05-21T10:07:53.835Z,7.40
2019-05-21T10:08:53.834Z,6.90
2019-05-21T10:09:53.799Z,7.20
2019-05-21T10:10:53.782Z,5.50
2019-05-21T10:11:53.802Z,5.20
2019-05-21T10:12:53.795Z,5.10
2019-05-21T10:13:53.832Z,5.10
2019-05-21T10:14:53.789Z,4.40
2019-05-21T10:15:53.748Z,5.00
2019-05-21T10:16:53.728Z,4.40
2019-05-21T10:17:53.718Z,4.60
2019-05-21T10:18:53.707Z,4.70
2019-05-21T10:19:53.703Z,4.50
2019-05-21T10:20:53.726Z,4.30
2019-05-21T10:21:56.826Z,4.50
2019-05-21T10:22:53.690Z,4.30
2019-05-21T10:23:53.672Z,5.20
2019-05-21T10:24:53.638Z,5.20
2019-05-21T10:25:53.651Z,4.50
2019-05-21T10:26:53.638Z,5.00
2019-05-21T10:27:53.613Z,4.80
2019-05-21T10:28:53.613Z,5.30
2019-05-21T10:29:53.599Z,6.20
2019-05-21T10:30:53.623Z,5.50
2019-05-21T10:31:53.581Z,6.80
2019-05-21T10:32:53.541Z,6.10
2019-05-21T10:33:53.551Z,6.40
2019-05-21T10:34:53.571Z,5.80
2019-05-21T10:35:53.579Z,5.20
2019-05-21T10:36:53.522Z,6.80
2019-05-21T10:37:55.251Z,7.10
2019-05-21T10:38:53.504Z,6.70
2019-05-21T10:39:53.473Z,6.80
2019-05-21T10:40:53.484Z,6.50
2019-05-21T10:41:53.463Z,6.60
2019-05-21T10:42:53.455Z,6.40
2019-05-21T10:43:53.427Z,6.20
2019-05-21T10:44:53.437Z,5.70
2019-05-21T10:45:53.443Z,6.20
2019-05-21T10:46:53.422Z,6.50
2019-05-21T10:47:53.388Z,7.20
2019-05-21T10:48:53.384Z,6.00
2019-05-21T10:49:53.368Z,6.10
2019-05-21T10:50:53.357Z,6.10
2019-05-21T10:51:53.374Z,5.80
2019-05-21T10:52:53.360Z,6.90
2019-05-21T10:53:53.336Z,6.20
2019-05-21T10:54:53.327Z,7.30
2019-05-21T10:55:53.313Z,7.30
2019-05-21T10:56:53.308Z,7.30
2019-05-21T10:57:53.292Z,11.20
2019-05-21T10:58:53.301Z,8.30
2019-05-21T10:59:53.289Z,13.40
2019-05-21T11:00:53.314Z,13.10
2019-05-21T11:01:53.237Z,14.80
2019-05-21T11:02:53.302Z,13.00
2019-05-21T11:03:53.225Z,10.90
2019-05-21T11:04:53.246Z,7.60
2019-05-21T11:06:08.922Z,7.80
2019-05-21T11:06:54.203Z,7.40
2019-05-21T11:07:53.181Z,6.40
2019-05-21T11:08:53.199Z,6.30
2019-05-21T11:09:53.174Z,5.90
2019-05-21T11:10:53.201Z,6.80
2019-05-21T11:11:53.187Z,6.60
2019-05-21T11:12:53.131Z,6.30
2019-05-21T11:13:53.181Z,8.80
2019-05-21T11:15:02.479Z,8.70
2019-05-21T11:16:02.497Z,10.70
2019-05-21T11:16:53.077Z,6.60
2019-05-21T11:18:09.211Z,5.30
2019-05-21T11:18:54.082Z,6.00
2019-05-21T11:19:53.046Z,5.60
2019-05-21T11:20:53.032Z,5.60
2019-05-21T11:21:53.056Z,5.60
2019-05-21T11:22:53.017Z,6.00
2019-05-21T11:23:53.161Z,6.20
2019-05-21T11:24:53.191Z,6.30
2019-05-21T11:25:52.989Z,6.10
2019-05-21T11:26:52.998Z,5.60
2019-05-21T11:27:53.007Z,6.40
2019-05-21T11:28:53.023Z,7.40
2019-05-21T11:29:52.942Z,6.10
2019-05-21T11:30:53.023Z,5.50
2019-05-21T11:32:02.007Z,5.80
2019-05-21T11:32:52.929Z,5.40
2019-05-21T11:34:01.531Z,5.60
2019-05-21T11:34:52.904Z,6.50
2019-05-21T11:35:52.883Z,6.30
2019-05-21T11:36:52.893Z,6.50
2019-05-21T11:37:52.946Z,8.30
2019-05-21T11:38:53.010Z,9.20
2019-05-21T11:39:52.848Z,9.00
2019-05-21T11:40:52.836Z,5.50
2019-05-21T11:41:52.855Z,6.00
2019-05-21T11:42:53.334Z,5.60
2019-05-21T11:43:52.806Z,5.60
2019-05-21T11:44:52.800Z,5.40
2019-05-21T11:45:52.816Z,6.30
2019-05-21T11:46:52.818Z,5.70
2019-05-21T11:47:54.739Z,5.80
2019-05-21T11:48:52.763Z,9.10
2019-05-21T11:49:52.770Z,7.90
2019-05-21T11:50:52.755Z,7.70
2019-05-21T11:51:52.745Z,8.00
2019-05-21T11:52:52.731Z,7.30
2019-05-21T11:53:52.734Z,6.30
2019-05-21T11:54:55.757Z,5.40
2019-05-21T11:55:52.723Z,5.40
2019-05-21T11:56:52.707Z,5.50
2019-05-21T11:57:52.674Z,5.30
2019-05-21T11:58:52.693Z,4.70
2019-05-21T11:59:52.701Z,6.10
2019-05-21T12:00:52.664Z,4.60
2019-05-21T12:01:52.633Z,5.50
2019-05-21T12:02:52.647Z,5.60
2019-05-21T12:03:52.636Z,5.70
2019-05-21T12:04:52.696Z,6.80
2019-05-21T12:05:52.608Z,6.50
2019-05-21T12:06:52.583Z,6.00
2019-05-21T12:07:52.631Z,5.00
2019-05-21T12:08:56.731Z,4.50
2019-05-21T12:09:52.558Z,6.00
2019-05-21T12:10:52.562Z,5.90
2019-05-21T12:11:52.542Z,5.50
2019-05-21T12:12:52.546Z,4.70
2019-05-21T12:13:52.570Z,5.10
2019-05-21T12:14:52.511Z,4.40
2019-05-21T12:15:52.497Z,4.60
2019-05-21T12:16:52.473Z,5.00
2019-05-21T12:17:52.486Z,5.70
2019-05-21T12:18:52.470Z,7.60
2019-05-21T12:19:52.475Z,7.70
2019-05-21T12:20:52.472Z,7.20
2019-05-21T12:21:52.464Z,7.90
2019-05-21T12:22:52.427Z,4.90
2019-05-21T12:23:52.411Z,6.50
2019-05-21T12:24:52.421Z,5.60
2019-05-21T12:25:52.379Z,4.60
2019-05-21T12:26:52.382Z,5.40
2019-05-21T12:27:52.449Z,5.30
2019-05-21T12:28:52.364Z,5.30
2019-05-21T12:29:52.358Z,6.40
2019-05-21T12:30:52.374Z,4.60
2019-05-21T12:31:52.327Z,4.90
2019-05-21T12:32:52.337Z,9.90
2019-05-21T12:33:52.367Z,12.30
2019-05-21T12:34:52.315Z,8.30
2019-05-21T12:35:52.293Z,9.20
2019-05-21T12:36:52.310Z,6.10
2019-05-21T12:37:52.272Z,11.00
2019-05-21T12:38:52.251Z,5.90
2019-05-21T12:39:52.294Z,6.00
2019-05-21T12:40:52.256Z,6.40
2019-05-21T12:41:52.290Z,7.00
2019-05-21T12:42:52.226Z,4.30
2019-05-21T12:43:52.242Z,4.80
2019-05-21T12:44:52.243Z,4.30
2019-05-21T12:45:52.271Z,4.40
2019-05-21T12:46:52.267Z,4.60
2019-05-21T12:47:52.201Z,5.70
2019-05-21T12:48:52.200Z,5.70
2019-05-21T12:49:53.014Z,4.30
2019-05-21T12:50:52.147Z,4.30
2019-05-21T12:51:52.219Z,4.40
2019-05-21T12:52:52.178Z,4.30
2019-05-21T12:53:52.145Z,4.20
2019-05-21T12:54:52.208Z,5.70
2019-05-21T12:55:52.168Z,6.20
2019-05-21T12:56:52.123Z,4.20
2019-05-21T12:57:52.154Z,4.30